createdAt,value
2017-09-19T00:00:19.127Z,93.21
2017-09-19T00:02:54.461Z,93.14
2017-09-19T00:05:29.346Z,93.02
2017-09-19T00:08:04.455Z,92.93
2017-09-19T00:10:39.590Z,93.22
2017-09-19T00:13:14.370Z,93.16
2017-09-19T00:15:49.380Z,93.21
2017-09-19T00:18:24.291Z,93.38
2017-09-19T00:20:59.083Z,93.38
2017-09-19T00:23:34.451Z,93.40
2017-09-19T00:26:09.388Z,93.10
2017-09-19T00:28:44.514Z,92.88
2017-09-19T00:31:19.359Z,92.71
2017-09-19T00:33:54.439Z,92.62
2017-09-19T00:36:29.275Z,92.47
2017-09-19T00:39:03.643Z,92.33
2017-09-19T00:41:39.021Z,92.19
2017-09-19T00:44:13.995Z,92.18
2017-09-19T00:46:49.038Z,92.17
2017-09-19T00:49:23.877Z,92.16
2017-09-19T00:51:58.171Z,92.15
2017-09-19T00:54:33.345Z,92.27
2017-09-19T00:57:08.903Z,92.64
2017-09-19T00:59:43.051Z,92.72
2017-09-19T01:02:17.451Z,92.97
2017-09-19T01:04:52.480Z,93.08
2017-09-19T01:07:27.274Z,92.94
2017-09-19T01:10:01.567Z,92.84
2017-09-19T01:12:36.347Z,92.74
2017-09-19T01:15:10.919Z,92.94
2017-09-19T01:17:45.475Z,93.23
2017-09-19T01:20:19.955Z,93.36
2017-09-19T01:22:54.731Z,93.13
2017-09-19T01:25:29.634Z,93.09
2017-09-19T01:28:04.681Z,93.02
2017-09-19T01:30:39.984Z,92.96
2017-09-19T01:33:15.068Z,92.84
2017-09-19T01:35:50.099Z,92.84
2017-09-19T01:38:25.033Z,92.82
2017-09-19T01:40:59.802Z,92.71
2017-09-19T01:43:34.811Z,92.65
2017-09-19T01:46:10.117Z,92.76
2017-09-19T01:48:45.035Z,92.66
2017-09-19T01:51:19.097Z,92.57
2017-09-19T01:53:54.409Z,92.60
2017-09-19T01:56:29.275Z,92.66
2017-09-19T01:59:04.415Z,92.61
2017-09-19T02:01:39.359Z,92.70
2017-09-19T02:04:14.547Z,92.89
2017-09-19T02:06:49.416Z,93.26
2017-09-19T02:09:24.352Z,93.66
2017-09-19T02:11:59.072Z,94.02
2017-09-19T02:14:33.907Z,94.49
2017-09-19T02:17:08.995Z,94.58
2017-09-19T02:19:43.484Z,94.61
2017-09-19T02:22:18.201Z,94.52
2017-09-19T02:24:53.436Z,94.73
2017-09-19T02:27:28.366Z,94.48
2017-09-19T02:30:03.371Z,94.49
2017-09-19T02:32:38.272Z,94.49
2017-09-19T02:35:13.298Z,94.45
2017-09-19T02:37:48.295Z,94.27
2017-09-19T02:40:23.191Z,94.16
2017-09-19T02:42:58.106Z,94.09
2017-09-19T02:45:33.038Z,93.91
2017-09-19T02:48:07.967Z,93.71
2017-09-19T02:50:42.820Z,93.60
2017-09-19T02:53:17.714Z,93.53
2017-09-19T02:55:52.608Z,93.60
2017-09-19T02:58:27.216Z,93.75
2017-09-19T03:01:02.307Z,93.83
2017-09-19T03:03:37.254Z,93.81
2017-09-19T03:06:12.320Z,93.80
2017-09-19T03:08:46.845Z,93.80
2017-09-19T03:11:22.151Z,93.68
2017-09-19T03:13:56.943Z,93.61
2017-09-19T03:16:31.762Z,93.65
2017-09-19T03:19:06.884Z,93.63
2017-09-19T03:21:41.939Z,93.62
2017-09-19T03:24:16.731Z,93.71
2017-09-19T03:26:51.639Z,93.74
2017-09-19T03:29:26.088Z,93.81
2017-09-19T03:32:00.800Z,93.71
2017-09-19T03:34:35.820Z,93.63
2017-09-19T03:37:11.083Z,93.59
2017-09-19T03:39:46.208Z,93.71
2017-09-19T03:42:21.278Z,93.72
2017-09-19T03:44:56.587Z,93.76
2017-09-19T03:47:31.772Z,93.69
2017-09-19T03:50:06.815Z,93.58
2017-09-19T03:52:41.727Z,93.60
2017-09-19T03:55:16.523Z,93.67
2017-09-19T03:57:51.639Z,93.75
2017-09-19T04:00:26.472Z,93.76
2017-09-19T04:03:01.572Z,93.88
2017-09-19T04:05:36.259Z,93.93
2017-09-19T04:08:11.142Z,93.97
2017-09-19T04:10:45.799Z,94.04
2017-09-19T04:13:20.887Z,94.07
2017-09-19T04:15:55.700Z,94.20
2017-09-19T04:18:30.908Z,94.14
2017-09-19T04:21:05.712Z,94.05
2017-09-19T04:23:40.543Z,94.02
2017-09-19T04:26:16.669Z,94.33
2017-09-19T04:28:50.816Z,94.29
2017-09-19T04:31:26.308Z,94.29
2017-09-19T04:34:00.896Z,94.37
2017-09-19T04:36:35.939Z,94.33
2017-09-19T04:39:11.110Z,94.13
2017-09-19T04:41:46.252Z,94.05
2017-09-19T04:44:20.735Z,94.12
2017-09-19T04:46:55.774Z,94.14
2017-09-19T04:49:30.950Z,94.10
2017-09-19T04:52:06.170Z,94.09
2017-09-19T04:54:41.151Z,93.99
2017-09-19T04:57:15.965Z,93.96
2017-09-19T04:59:50.646Z,93.94
2017-09-19T05:02:25.358Z,94.10
2017-09-19T05:05:00.330Z,94.30
2017-09-19T05:07:35.367Z,94.08
2017-09-19T05:10:10.375Z,93.87
2017-09-19T05:12:45.132Z,93.97
2017-09-19T05:15:20.380Z,95.07
2017-09-19T05:17:55.211Z,96.03
2017-09-19T05:20:30.262Z,95.84
2017-09-19T05:23:05.210Z,95.38
2017-09-19T05:25:40.170Z,95.20
2017-09-19T05:28:15.195Z,94.87
2017-09-19T05:30:49.963Z,95.23
2017-09-19T05:33:24.908Z,93.28
2017-09-19T05:35:59.719Z,92.39
2017-09-19T05:38:34.783Z,92.38
2017-09-19T05:41:09.540Z,92.61
2017-09-19T05:43:44.739Z,92.80
2017-09-19T05:46:19.916Z,92.92
2017-09-19T05:48:54.819Z,92.94
2017-09-19T05:51:29.663Z,92.91
2017-09-19T05:54:05.123Z,92.84
2017-09-19T05:56:39.943Z,92.71
2017-09-19T05:59:14.804Z,92.75
2017-09-19T06:01:49.803Z,92.70
2017-09-19T06:04:25.319Z,92.68
2017-09-19T06:07:00.016Z,92.75
2017-09-19T06:09:34.292Z,93.08
2017-09-19T06:12:09.339Z,93.27
2017-09-19T06:14:44.147Z,93.10
2017-09-19T06:17:18.876Z,93.17
2017-09-19T06:19:53.616Z,93.20
2017-09-19T06:22:28.558Z,93.16
2017-09-19T06:25:03.000Z,93.13
2017-09-19T06:27:38.220Z,93.18
2017-09-19T06:30:12.751Z,93.42
2017-09-19T06:32:47.367Z,94.40
2017-09-19T06:35:21.559Z,94.75
2017-09-19T06:37:56.727Z,94.47
2017-09-19T06:40:31.663Z,95.04
2017-09-19T06:43:05.979Z,95.41
2017-09-19T06:45:40.846Z,95.58
2017-09-19T06:48:15.931Z,94.97
2017-09-19T06:50:50.975Z,94.40
2017-09-19T06:53:25.807Z,93.83
2017-09-19T06:56:01.031Z,93.81
2017-09-19T06:58:36.023Z,93.81
2017-09-19T07:01:11.133Z,93.84
2017-09-19T07:03:46.360Z,93.58
2017-09-19T07:06:21.388Z,93.53
2017-09-19T07:08:56.538Z,93.46
2017-09-19T07:11:31.487Z,93.22
2017-09-19T07:14:06.003Z,92.98
2017-09-19T07:16:41.655Z,92.43
2017-09-19T07:19:16.463Z,92.15
2017-09-19T07:21:51.468Z,92.25
2017-09-19T07:24:27.293Z,92.49
2017-09-19T07:27:02.224Z,92.44
2017-09-19T07:29:37.255Z,92.29
2017-09-19T07:32:13.100Z,92.00
2017-09-19T07:34:47.769Z,91.73
2017-09-19T07:37:22.740Z,91.72
2017-09-19T07:39:57.594Z,92.19
2017-09-19T07:42:32.516Z,92.36
2017-09-19T07:45:07.125Z,92.42
2017-09-19T07:47:42.043Z,92.15
2017-09-19T07:50:17.048Z,91.63
2017-09-19T07:52:52.018Z,91.52
2017-09-19T07:55:27.011Z,90.93
2017-09-19T07:58:01.696Z,90.84
2017-09-19T08:00:36.055Z,91.27
2017-09-19T08:03:10.910Z,91.40
2017-09-19T08:05:46.043Z,91.14
2017-09-19T08:08:20.735Z,90.56
2017-09-19T08:10:55.543Z,89.85
2017-09-19T08:13:30.499Z,89.51
2017-09-19T08:16:05.788Z,89.51
2017-09-19T08:18:40.206Z,89.52
2017-09-19T08:21:15.213Z,89.02
2017-09-19T08:23:50.123Z,88.72
2017-09-19T08:26:25.542Z,88.44
2017-09-19T08:29:00.680Z,89.19
2017-09-19T08:31:36.306Z,89.31
2017-09-19T08:34:11.102Z,88.30
2017-09-19T08:36:45.923Z,87.89
2017-09-19T08:39:20.882Z,86.32
2017-09-19T08:41:55.781Z,86.83
2017-09-19T08:44:30.586Z,87.12
2017-09-19T08:47:06.186Z,85.82
2017-09-19T08:49:41.227Z,86.25
2017-09-19T08:52:15.852Z,86.19
2017-09-19T08:54:50.989Z,86.47
2017-09-19T08:57:26.383Z,86.47
2017-09-19T09:00:01.544Z,86.36
2017-09-19T09:02:36.338Z,86.24
2017-09-19T09:05:12.440Z,85.84
2017-09-19T09:07:47.175Z,85.54
2017-09-19T09:10:21.979Z,84.45
2017-09-19T09:12:57.148Z,84.91
2017-09-19T09:15:32.183Z,85.59
2017-09-19T09:18:07.116Z,85.71
2017-09-19T09:20:41.919Z,85.32
2017-09-19T09:23:16.755Z,84.93
2017-09-19T09:25:51.751Z,84.61
2017-09-19T09:28:26.747Z,84.24
2017-09-19T09:31:01.781Z,84.49
2017-09-19T09:33:36.973Z,84.44
2017-09-19T09:36:12.014Z,83.87
2017-09-19T09:38:46.915Z,82.67
2017-09-19T09:41:21.790Z,81.17
2017-09-19T09:43:56.567Z,81.78
2017-09-19T09:46:31.147Z,80.04
2017-09-19T09:49:06.173Z,79.14
2017-09-19T09:51:40.785Z,78.32
2017-09-19T09:54:15.531Z,77.01
2017-09-19T09:56:49.780Z,77.41
2017-09-19T09:59:24.807Z,76.57
2017-09-19T10:01:59.932Z,75.74
2017-09-19T10:04:34.744Z,77.17
2017-09-19T10:07:09.455Z,75.33
2017-09-19T10:09:44.853Z,76.80
2017-09-19T10:12:19.588Z,77.22
2017-09-19T10:14:54.357Z,76.25
2017-09-19T10:17:29.761Z,74.10
2017-09-19T10:20:04.347Z,74.58
2017-09-19T10:22:39.146Z,73.45
2017-09-19T10:25:14.040Z,73.38
2017-09-19T10:27:48.947Z,72.70
2017-09-19T10:30:23.623Z,73.17
2017-09-19T10:32:58.570Z,73.13
2017-09-19T10:35:33.012Z,71.65
2017-09-19T10:38:08.026Z,72.40
2017-09-19T10:40:42.910Z,70.47
2017-09-19T10:43:17.944Z,70.94
2017-09-19T10:45:52.454Z,71.33
2017-09-19T10:48:26.982Z,71.32
2017-09-19T10:51:02.504Z,70.78
2017-09-19T10:53:37.458Z,71.25
2017-09-19T10:56:12.133Z,72.28
2017-09-19T10:58:47.068Z,72.49
2017-09-19T11:01:21.819Z,71.00
2017-09-19T11:03:56.634Z,71.30
2017-09-19T11:06:31.594Z,72.71
2017-09-19T11:09:05.980Z,73.47
2017-09-19T11:11:41.021Z,72.08
2017-09-19T11:14:15.735Z,72.37
2017-09-19T11:16:50.540Z,71.31
2017-09-19T11:19:25.463Z,70.01
2017-09-19T11:22:00.372Z,69.03
2017-09-19T11:24:35.166Z,66.70
2017-09-19T11:27:10.004Z,67.43
2017-09-19T11:29:45.651Z,65.72
2017-09-19T11:32:21.191Z,66.29
2017-09-19T11:34:56.459Z,65.71
2017-09-19T11:37:31.320Z,65.66
2017-09-19T11:40:06.244Z,63.81
2017-09-19T11:42:41.395Z,64.39
2017-09-19T11:45:16.092Z,64.66
2017-09-19T11:47:51.107Z,66.07
2017-09-19T11:50:26.355Z,66.61
2017-09-19T11:53:01.452Z,65.67
2017-09-19T11:55:36.256Z,64.94
2017-09-19T11:58:11.051Z,65.03
2017-09-19T12:00:46.086Z,64.59
2017-09-19T12:03:20.806Z,65.51
2017-09-19T12:05:55.498Z,64.50
2017-09-19T12:08:30.512Z,64.46
2017-09-19T12:11:05.332Z,64.13
2017-09-19T12:13:40.135Z,63.49
2017-09-19T12:16:14.863Z,64.64
2017-09-19T12:18:49.694Z,65.07
2017-09-19T12:21:24.714Z,64.71
2017-09-19T12:23:59.606Z,64.05
2017-09-19T12:26:34.436Z,64.82
2017-09-19T12:29:09.289Z,64.82
2017-09-19T12:31:43.980Z,64.79
2017-09-19T12:34:19.015Z,64.49
2017-09-19T12:36:53.844Z,63.98
2017-09-19T12:39:28.771Z,58.56
2017-09-19T12:42:03.680Z,59.30
2017-09-19T12:44:38.578Z,58.30
2017-09-19T12:47:13.283Z,57.62
2017-09-19T12:49:51.895Z,55.84
2017-09-19T12:52:26.888Z,58.68
2017-09-19T12:55:02.144Z,60.24
2017-09-19T12:57:36.723Z,60.21
2017-09-19T13:00:11.532Z,60.62
2017-09-19T13:02:46.728Z,60.94
2017-09-19T13:05:21.435Z,60.47
2017-09-19T13:07:56.502Z,59.02
2017-09-19T13:10:30.919Z,58.50
2017-09-19T13:13:06.026Z,58.41
2017-09-19T13:15:41.639Z,57.67
2017-09-19T13:18:16.899Z,58.72
2017-09-19T13:20:51.925Z,59.80
2017-09-19T13:23:26.518Z,59.21
2017-09-19T13:26:01.518Z,58.40
2017-09-19T13:28:36.416Z,58.58
2017-09-19T13:31:22.503Z,56.60
2017-09-19T13:36:30.704Z,54.76
2017-09-19T13:39:05.803Z,53.76
2017-09-19T13:41:41.090Z,53.41
2017-09-19T13:44:15.740Z,55.03
2017-09-19T13:46:50.351Z,56.17
2017-09-19T13:49:25.442Z,57.25
2017-09-19T13:52:00.281Z,58.90
2017-09-19T13:54:34.988Z,61.48
2017-09-19T13:57:09.885Z,62.79
2017-09-19T13:59:44.607Z,63.45
2017-09-19T14:02:19.459Z,63.71
2017-09-19T14:04:54.384Z,63.01
2017-09-19T14:07:29.311Z,61.97
2017-09-19T14:10:03.783Z,60.86
2017-09-19T14:12:38.437Z,60.64
2017-09-19T14:15:13.261Z,61.44
2017-09-19T14:17:48.194Z,62.08
2017-09-19T14:20:23.081Z,62.68
2017-09-19T14:22:57.863Z,62.91
2017-09-19T14:25:32.659Z,61.63
2017-09-19T14:28:07.571Z,61.92
2017-09-19T14:30:42.481Z,62.99
2017-09-19T14:33:17.362Z,61.34
2017-09-19T14:35:52.275Z,61.47
2017-09-19T14:38:27.327Z,60.14
2017-09-19T14:41:02.435Z,59.90
2017-09-19T14:43:37.463Z,60.76
2017-09-19T14:46:12.392Z,60.62
2017-09-19T14:48:47.192Z,59.38
2017-09-19T14:51:22.200Z,60.11
2017-09-19T14:53:56.975Z,58.75
2017-09-19T14:56:31.813Z,59.26
2017-09-19T14:59:07.731Z,57.64
2017-09-19T15:01:42.574Z,56.51
2017-09-19T15:04:17.206Z,57.14
2017-09-19T15:06:52.211Z,58.75
2017-09-19T15:09:26.919Z,58.73
2017-09-19T15:12:01.847Z,59.14
2017-09-19T15:14:36.616Z,60.50
2017-09-19T15:17:11.812Z,61.62
2017-09-19T15:19:46.955Z,60.33
2017-09-19T15:22:22.449Z,61.14
2017-09-19T15:24:57.348Z,59.99
2017-09-19T15:27:32.062Z,61.00
2017-09-19T15:30:06.928Z,61.39
2017-09-19T15:32:41.728Z,59.40
2017-09-19T15:35:16.282Z,59.18
2017-09-19T15:37:52.210Z,58.65
2017-09-19T15:40:26.907Z,59.48
2017-09-19T15:43:01.415Z,59.97
2017-09-19T15:45:36.120Z,61.12
2017-09-19T15:48:11.056Z,60.27
2017-09-19T15:50:45.959Z,60.58
2017-09-19T15:53:20.722Z,60.16
2017-09-19T15:55:55.515Z,61.02
2017-09-19T15:58:30.207Z,61.98
2017-09-19T16:01:04.596Z,60.25
2017-09-19T16:03:40.620Z,61.78
2017-09-19T16:06:15.499Z,61.73
2017-09-19T16:08:50.379Z,60.66
2017-09-19T16:11:25.260Z,60.84
2017-09-19T16:14:00.098Z,61.46
2017-09-19T16:16:34.517Z,62.14
2017-09-19T16:19:09.210Z,62.44
2017-09-19T16:21:43.970Z,62.27
2017-09-19T16:24:18.591Z,60.63
2017-09-19T16:26:53.320Z,61.23
2017-09-19T16:29:28.103Z,61.93
2017-09-19T16:32:03.147Z,61.80
2017-09-19T16:34:37.755Z,62.69
2017-09-19T16:37:12.598Z,62.68
2017-09-19T16:39:47.484Z,62.87
2017-09-19T16:42:22.200Z,63.56
2017-09-19T16:44:56.910Z,63.48
2017-09-19T16:47:31.779Z,63.24
2017-09-19T16:50:06.659Z,64.07
2017-09-19T16:52:41.466Z,64.06
2017-09-19T16:55:16.087Z,64.12
2017-09-19T16:57:50.880Z,64.30
2017-09-19T17:00:25.519Z,64.72
2017-09-19T17:03:00.198Z,65.10
2017-09-19T17:05:34.952Z,65.31
2017-09-19T17:08:09.832Z,65.62
2017-09-19T17:10:44.642Z,65.82
2017-09-19T17:13:19.380Z,66.23
2017-09-19T17:15:54.203Z,66.57
2017-09-19T17:18:29.141Z,66.88
2017-09-19T17:21:03.794Z,67.59
2017-09-19T17:23:38.358Z,68.47
2017-09-19T17:26:13.556Z,68.99
2017-09-19T17:28:48.580Z,69.33
2017-09-19T17:31:23.323Z,69.38
2017-09-19T17:33:58.929Z,69.73
2017-09-19T17:36:34.186Z,70.26
2017-09-19T17:39:08.663Z,70.85
2017-09-19T17:41:43.697Z,71.35
2017-09-19T17:44:18.719Z,71.61
2017-09-19T17:46:53.395Z,72.08
2017-09-19T17:49:28.550Z,72.36
2017-09-19T17:52:03.590Z,72.53
2017-09-19T17:54:39.229Z,72.50
2017-09-19T17:57:13.776Z,72.61
2017-09-19T17:59:48.666Z,72.71
2017-09-19T18:02:23.451Z,72.72
2017-09-19T18:04:58.204Z,72.70
2017-09-19T18:07:33.003Z,72.92
2017-09-19T18:10:07.716Z,72.79
2017-09-19T18:12:42.802Z,73.21
2017-09-19T18:15:17.692Z,73.75
2017-09-19T18:17:52.824Z,73.13
2017-09-19T18:20:27.710Z,73.81
2017-09-19T18:23:02.574Z,74.00
2017-09-19T18:25:38.555Z,74.02
2017-09-19T18:28:13.344Z,74.23
2017-09-19T18:30:48.050Z,75.06
2017-09-19T18:33:22.705Z,75.19
2017-09-19T18:35:57.355Z,75.82
2017-09-19T18:38:32.586Z,77.11
2017-09-19T18:41:12.403Z,78.19
2017-09-19T18:43:47.316Z,78.39
2017-09-19T18:46:21.979Z,78.37
2017-09-19T18:48:56.959Z,78.72
2017-09-19T18:51:31.887Z,78.68
2017-09-19T18:54:06.847Z,78.98
2017-09-19T18:56:41.688Z,79.45
2017-09-19T18:59:16.590Z,79.79
2017-09-19T19:01:51.585Z,79.71
2017-09-19T19:04:26.429Z,79.98
2017-09-19T19:07:02.411Z,80.53
2017-09-19T19:09:37.219Z,82.05
2017-09-19T19:12:12.135Z,81.92
2017-09-19T19:14:46.977Z,82.36
2017-09-19T19:17:21.824Z,82.10
2017-09-19T19:19:56.755Z,81.77
2017-09-19T19:22:31.743Z,81.88
2017-09-19T19:28:36.674Z,81.86
2017-09-19T19:31:12.967Z,81.95
2017-09-19T19:33:47.830Z,82.10
2017-09-19T19:36:22.849Z,82.44
2017-09-19T19:38:57.441Z,81.88
2017-09-19T19:41:32.386Z,81.72
2017-09-19T19:44:07.395Z,81.77
2017-09-19T19:46:42.329Z,81.65
2017-09-19T19:49:17.705Z,81.63
2017-09-19T19:51:52.277Z,81.79
2017-09-19T19:54:27.281Z,82.08
2017-09-19T19:57:02.499Z,82.33
2017-09-19T19:59:37.260Z,82.50
2017-09-19T20:02:12.030Z,82.62
2017-09-19T20:04:46.743Z,82.73
2017-09-19T20:07:21.384Z,82.98
2017-09-19T20:09:56.482Z,83.09
2017-09-19T20:12:31.439Z,83.18
2017-09-19T20:15:06.267Z,83.22
2017-09-19T20:17:41.466Z,83.11
2017-09-19T20:20:16.395Z,83.33
2017-09-19T20:22:51.370Z,83.51
2017-09-19T20:25:26.293Z,83.71
2017-09-19T20:28:01.036Z,83.82
2017-09-19T20:30:35.954Z,83.76
2017-09-19T20:33:10.875Z,84.10
2017-09-19T20:35:45.773Z,84.33
2017-09-19T20:38:20.749Z,84.29
2017-09-19T20:40:55.712Z,84.79
2017-09-19T20:43:30.745Z,85.08
2017-09-19T20:46:05.684Z,85.21
2017-09-19T20:48:40.762Z,85.16
2017-09-19T20:51:15.754Z,85.03
2017-09-19T20:53:50.775Z,84.91
2017-09-19T20:56:25.739Z,84.85
2017-09-19T20:59:00.625Z,85.02
2017-09-19T21:01:37.431Z,85.06
2017-09-19T21:04:18.091Z,85.24
2017-09-19T21:06:58.745Z,85.91
2017-09-19T21:09:39.462Z,85.84
2017-09-19T21:12:20.236Z,86.03
2017-09-19T21:15:00.867Z,86.29
2017-09-19T21:17:41.621Z,86.44
2017-09-19T21:20:15.350Z,86.90
2017-09-19T21:22:49.778Z,87.04
2017-09-19T21:25:24.784Z,87.16
2017-09-19T21:27:59.782Z,86.98
2017-09-19T21:30:35.075Z,87.26
2017-09-19T21:33:10.074Z,87.46
2017-09-19T21:35:45.123Z,87.44
2017-09-19T21:38:20.049Z,87.40
2017-09-19T21:40:55.044Z,87.41
2017-09-19T21:43:29.851Z,87.66
2017-09-19T21:46:04.780Z,87.78
2017-09-19T21:48:39.439Z,87.93
2017-09-19T21:51:14.777Z,88.13
2017-09-19T21:53:50.091Z,88.16
2017-09-19T21:56:25.671Z,88.41
2017-09-19T21:59:00.379Z,88.80
2017-09-19T22:01:34.944Z,88.84
2017-09-19T22:04:09.773Z,88.79
2017-09-19T22:06:44.998Z,88.79
2017-09-19T22:09:19.915Z,88.81
2017-09-19T22:11:55.001Z,88.80
2017-09-19T22:14:29.894Z,88.65
2017-09-19T22:17:04.749Z,88.83
2017-09-19T22:19:39.606Z,88.96
2017-09-19T22:22:14.843Z,88.80
2017-09-19T22:24:49.562Z,88.66
2017-09-19T22:27:24.308Z,88.69
2017-09-19T22:29:59.317Z,88.47
2017-09-19T22:32:34.306Z,88.69
2017-09-19T22:35:09.305Z,89.38
2017-09-19T22:37:44.246Z,89.82
2017-09-19T22:40:20.059Z,89.93
2017-09-19T22:42:54.890Z,89.88
2017-09-19T22:45:29.905Z,89.99
2017-09-19T22:48:04.675Z,89.85
2017-09-19T22:50:39.500Z,89.76
2017-09-19T22:53:15.074Z,90.03
2017-09-19T22:55:49.715Z,90.05
2017-09-19T22:58:24.415Z,90.05
2017-09-19T23:00:59.023Z,90.00
2017-09-19T23:03:33.949Z,90.02
2017-09-19T23:06:08.935Z,89.94
2017-09-19T23:08:44.013Z,90.03
2017-09-19T23:11:19.024Z,90.21
2017-09-19T23:13:53.631Z,90.48
2017-09-19T23:16:28.261Z,90.81
2017-09-19T23:19:03.223Z,91.02
2017-09-19T23:21:38.118Z,91.17
2017-09-19T23:24:12.916Z,91.41
2017-09-19T23:26:47.696Z,91.50
2017-09-19T23:29:22.411Z,91.73
2017-09-19T23:31:57.255Z,92.01
2017-09-19T23:34:31.467Z,92.25
2017-09-19T23:37:05.881Z,92.26
2017-09-19T23:39:40.672Z,92.51
2017-09-19T23:42:15.739Z,92.56
2017-09-19T23:44:50.662Z,92.39
2017-09-19T23:47:25.363Z,92.49
2017-09-19T23:50:00.281Z,92.68
2017-09-19T23:52:35.503Z,92.90
2017-09-19T23:55:10.343Z,93.08
2017-09-19T23:57:45.449Z,93.02
